AirNav   Everest Fuels
 
 268 users online  

2OR0 Nielsen Airport
Oregon City, Oregon, USA

GOING TO OREGON CITY?


FAA INFORMATION EFFECTIVE 12 SEPTEMBER 2019

Location

FAA Identifier: 2OR0
Lat/Long: 45-20-39.4380N 122-31-04.3210W
45-20.657300N 122-31.072017W
45.3442883,-122.5178669
(estimated)
Elevation: 510 ft. / 155 m (estimated)
Variation: 19E (1985)
From city: 4 miles E of OREGON CITY, OR
Time zone: UTC -7 (UTC -8 during Standard Time)
Zip code: 97045

Airport Operations

Airport use: Private use. Permission required prior to landing
Activation date: 02/1969
Control tower: no
ARTCC: SEATTLE CENTER
FSS: MC MINNVILLE FLIGHT SERVICE STATION
Attendance: UNATNDD
Wind indicator: yes
Segmented circle: no

Airport Communications

WX ASOS at UAO (12 nm SW): PHONE 503-678-3011
WX ASOS at TTD (13 nm N): 135.625 (503-492-2887)
WX ASOS at PDX (15 nm N): PHONE (503) 493-7687
WX ASOS at VUO (18 nm N): 135.125 (360-696-1280)

Nearby radio navigation aids

VOR radial/distance  VOR name  Freq  Var
UBGr071/19.4NEWBERG VOR/DME117.4021E
BTGr152/24.4BATTLE GROUND VORTAC116.6021E

 
NDB name  Hdg/Dist  Freq  Var  ID
BANKS112/28.135616EPND .--. -. -..

Airport Services

Airframe service: NONE
Powerplant service: NONE

Runway Information

Runway 9/27

Dimensions: 1150 x 50 ft. / 351 x 15 m
Surface: turf
RUNWAY 9  RUNWAY 27
Traffic pattern: rightright
Obstructions: trees30 ft. trees, 100 ft. from runway

Airport Ownership and Management from official FAA records

Ownership: Privately-owned
Owner: TIM FARLEY
16765 S BECKMAN ROAD
OREGON CITY, OR 97045
Phone 503-631-3538
Manager: TIM FARLEY
16765 S BECKMAN ROAD
OREGON CITY, OR 97045
Phone 503-631-3538

Airport Operational Statistics

Aircraft based on the field: 4
Single engine airplanes: 4
    

Additional Remarks

PVT USE RESTRICTED TO OWNERS OF ADJOINING PROPERTY OR EMERGENCY.
FOR CD CTC PORTLAND APCH AT 503-493-7545.

Instrument Procedures

There are no published instrument procedures at 2OR0.

Some nearby airports with instrument procedures:

KUAO - Aurora State Airport (12 nm SW)
KTTD - Portland-Troutdale Airport (13 nm N)
KPDX - Portland International Airport (15 nm N)
KVUO - Pearson Field Airport (18 nm N)
KHIO - Portland-Hillsboro Airport (22 nm NW)
 
Loc | Ops | Rwys | IFR | FBO | Links
Com | Nav | Svcs | Stats | Notes
Area around 2OR0 (Nielsen Airport)
 
Road maps at: MapQuest Bing Google
 
Aerial photo
WARNING: Photo may not be current or correct
Aerial photo of 2OR0 (Nielsen Airport)
Do you have a better or more recent aerial photo of Nielsen Airport that you would like to share? If so, please send us your photo.

 
Sectional chart

 
Airport distance calculator
Flying to Nielsen Airport? Find the distance to fly.

From to 2OR0

Sunrise and sunset
Times for 15-Sep-2019
 Local
(UTC-7)
 Zulu
(UTC)
Morning civil twilight06:2013:20
Sunrise06:5013:50
Sunset19:2102:21
Evening civil twilight19:5102:51

Current date and time
Zulu (UTC)  15-Sep-2019 09:14:13
Local (UTC-7)  15-Sep-2019 02:14:13
 
METAR
KUAO 
12nm SW 
150853Z AUTO 19006KT 10SM BKN090 OVC110 17/12 A2985 RMK AO2 SLP107 T01670117 58009
KTTD 
13nm N 
150853Z AUTO 16003KT 10SM OVC038 18/11 A2984 RMK AO2 SLP105 T01830111 58005
KPDX 
15nm N 
150853Z 15005KT 10SM BKN070 BKN085 18/12 A2984 RMK AO2 SLP101 T01780117 58008
KVUO 
17nm N 
150853Z AUTO 14004KT 10SM FEW041 SCT070 OVC090 18/12 A2983 RMK AO2 SLP100 T01780117 58008
KHIO 
22nm NW 
150853Z AUTO 17009KT 10SM BKN060 OVC110 17/12 A2982 RMK AO2 SLP096 T01670117 58012
TAF
KUAO 
12nm SW 
150520Z 1506/1606 VRB04KT P6SM SCT045 SCT150 BKN250 FM150800 16010G18KT P6SM SCT050 OVC080 FM151300 17008KT P6SM -RA OVC040 FM151500 VRB04KT 5SM RA BR SCT015 OVC025
KTTD 
13nm N 
150520Z 1506/1606 VRB03KT P6SM SCT045 SCT150 BKN250 FM150800 16010KT P6SM SCT050 OVC080 FM151300 14005KT P6SM -RA OVC040 FM151500 VRB04KT 5SM RA BR SCT015 OVC025 FM152100 VRB03KT P6SM -RA SCT025 OVC060 FM160000 VRB03KT P6SM -SHRA SCT025 BKN035 OVC070
KPDX 
15nm N 
150520Z 1506/1606 19010KT P6SM SCT040 OVC070 FM151200 17008KT P6SM -RA OVC035 FM151400 14005KT 5SM RA BR OVC025 FM152100 18008KT P6SM -SHRA SCT025 BKN035 OVC070
NOTAMs
Click for the latest NOTAMs
NOTAMs are issued by the DoD/FAA and will open in a separate window not controlled by AirNav.

 

 
 

Would you like to see your business listed on this page?

 If your business provides an interesting product or service to pilots, flight crews, aircraft, or users of the Nielsen Airport, you should consider listing it here.  To start the listing process, click on the button below
 
Add a business
 

Other Pages about Nielsen Airport

Update a link
 
Copyright © AirNav, LLC. All rights reserved. Privacy Policy  Contact